Time;durP1;ratioP1;P1;durP2;ratioP2;P2;SDS_P1;SDS_P2;PMS_P1;PMS_P2;Temp;Humidity;BMP_temperature;BMP_pressure;BME280_temperature;BME280_humidity;BME280_pressure;Samples;Min_cycle;Max_cycle;Signal;HPM_P1;HPM_P2
2022/09/25 00:01:29;;;;;;;45.35;26.00;;;;;;;5.03;85.25;94738.66;1711300;83;21977;-57
2022/09/25 00:03:57;;;;;;;44.30;26.52;;;;;;;4.98;85.30;94738.52;1701774;83;21026;-58
2022/09/25 00:06:26;;;;;;;45.38;28.12;;;;;;;4.94;85.64;94728.27;1711156;82;21069;-57
2022/09/25 00:08:55;;;;;;;49.70;30.23;;;;;;;4.99;86.03;94727.79;1701802;84;21561;-57
2022/09/25 00:11:26;;;;;;;54.00;31.37;;;;;;;5.05;86.09;94715.26;1711310;83;21544;-57
2022/09/25 00:13:54;;;;;;;53.73;30.50;;;;;;;5.10;86.16;94716.15;1701849;84;22059;-57
2022/09/25 00:16:25;;;;;;;53.60;29.82;;;;;;;5.11;85.85;94716.33;1711017;82;20974;-58
2022/09/25 00:21:41;;;;;;;53.75;30.62;;;;;;;5.04;85.81;94715.08;1711237;82;20970;-58
2022/09/25 00:24:09;;;;;;;46.75;27.52;;;;;;;5.06;85.65;94711.92;1701581;84;20982;-58
2022/09/25 00:26:39;;;;;;;50.80;29.12;;;;;;;5.01;85.45;94706.34;1711183;83;21921;-57
2022/09/25 00:29:09;;;;;;;49.40;27.58;;;;;;;5.01;85.79;94711.80;1701412;83;21034;-57
2022/09/25 00:31:38;;;;;;;51.40;28.02;;;;;;;5.00;85.68;94707.53;1711647;83;21101;-58
2022/09/25 00:34:06;;;;;;;50.70;27.65;;;;;;;4.98;85.72;94705.80;1708454;83;21017;-58
2022/09/25 00:36:35;;;;;;;54.25;27.30;;;;;;;5.02;86.11;94702.45;1701681;83;21046;-58
2022/09/25 00:39:03;;;;;;;52.62;27.87;;;;;;;5.08;86.12;94699.44;1685297;83;21197;-58
2022/09/25 00:41:32;;;;;;;44.33;26.70;;;;;;;5.19;86.04;94698.66;1701546;84;21029;-58
2022/09/25 00:44:03;;;;;;;41.63;26.75;;;;;;;5.22;85.61;94689.68;1711147;83;21009;-58
2022/09/25 00:46:41;;;;;;;45.03;27.60;;;;;;;5.20;85.63;94697.50;1701620;84;21018;-59
2022/09/25 00:49:16;;;;;;;45.23;27.15;;;;;;;5.25;86.11;94699.14;1711230;83;20966;-57
2022/09/25 00:51:57;;;;;;;39.13;25.27;;;;;;;5.25;85.27;94696.42;1701909;84;21195;-58
2022/09/25 00:54:32;;;;;;;44.10;27.80;;;;;;;5.21;85.43;94696.32;1711455;82;21498;-57
2022/09/25 00:57:03;;;;;;;47.62;28.10;;;;;;;5.23;85.70;94686.34;1682324;85;21025;-55
2022/09/25 00:59:39;;;;;;;62.23;30.52;;;;;;;5.27;85.67;94692.69;1701667;84;20982;-56
2022/09/25 01:02:07;;;;;;;51.65;29.15;;;;;;;5.27;85.59;94689.20;1711226;83;21045;-57
2022/09/25 01:04:36;;;;;;;49.08;29.55;;;;;;;5.30;85.87;94693.82;1675733;84;21184;-56
2022/09/25 01:07:07;;;;;;;46.83;26.93;;;;;;;5.31;85.91;94681.72;1711287;82;21534;-57
2022/09/25 01:09:36;;;;;;;57.15;30.43;;;;;;;5.34;85.97;94687.70;1701612;84;20970;-57
2022/09/25 01:12:04;;;;;;;47.83;27.60;;;;;;;5.37;85.79;94685.52;1711165;82;21005;-57
2022/09/25 01:14:34;;;;;;;58.52;34.08;;;;;;;5.43;85.79;94690.08;1701559;84;21606;-58
2022/09/25 01:17:23;;;;;;;58.95;33.02;;;;;;;5.43;85.62;94686.59;1685287;83;21185;-58
2022/09/25 01:20:11;;;;;;;64.42;31.82;;;;;;;5.45;85.71;94684.98;1701570;84;21502;-57
2022/09/25 01:22:57;;;;;;;50.17;29.27;;;;;;;5.47;85.49;94685.36;1686751;82;21439;-58
2022/09/25 01:25:59;;;;;;;51.25;28.70;;;;;;;5.45;85.01;94684.22;1701526;84;21045;-59
2022/09/25 01:28:47;;;;;;;42.03;25.45;;;;;;;5.36;84.80;94673.06;1712676;83;21128;-56
2022/09/25 01:31:28;;;;;;;44.00;27.27;;;;;;;5.31;84.80;94674.91;1692875;84;21286;-57
2022/09/25 01:34:00;;;;;;;59.40;30.62;;;;;;;5.17;84.73;94670.28;1659520;84;21489;-58
2022/09/25 01:36:31;;;;;;;56.85;31.07;;;;;;;5.11;85.26;94668.61;1692905;84;21021;-58
2022/09/25 01:39:07;;;;;;;46.88;27.35;;;;;;;5.12;85.32;94666.06;1722245;82;20984;-58
2022/09/25 01:42:00;;;;;;;38.98;24.15;;;;;;;5.11;85.16;94671.34;1703283;84;21606;-58
2022/09/25 01:44:37;;;;;;;37.63;22.15;;;;;;;5.13;85.26;94666.85;1702141;84;21317;-57
2022/09/25 01:47:10;;;;;;;36.25;21.65;;;;;;;5.10;85.06;94665.71;1721708;83;21040;-57
2022/09/25 01:49:52;;;;;;;31.50;19.87;;;;;;;5.07;84.95;94662.45;1693080;83;21024;-57
2022/09/25 01:52:27;;;;;;;43.70;25.57;;;;;;;5.08;85.30;94665.36;1692839;84;20957;-58
2022/09/25 01:54:59;;;;;;;33.02;20.43;;;;;;;5.10;85.03;94662.98;1692887;84;21089;-57
2022/09/25 01:57:34;;;;;;;27.93;17.52;;;;;;;5.09;84.65;94662.81;1693005;84;21200;-56
2022/09/25 02:00:12;;;;;;;20.48;15.75;;;;;;;5.03;84.31;94659.59;1691594;84;20935;-57
2022/09/25 02:02:47;;;;;;;18.50;15.30;;;;;;;5.00;84.53;94656.34;1721281;83;20961;-57
2022/09/25 02:05:32;;;;;;;23.18;15.18;;;;;;;4.96;84.33;94659.11;1667686;84;21488;-56
2022/09/25 02:08:04;;;;;;;37.90;21.02;;;;;;;4.95;84.28;94663.02;1692792;84;20973;-57
2022/09/25 02:10:45;;;;;;;48.08;24.92;;;;;;;4.87;84.01;94668.99;1693163;83;21149;-57
2022/09/25 02:13:16;;;;;;;58.65;29.07;;;;;;;4.79;83.95;94662.12;1692830;84;21651;-56
2022/09/25 02:15:50;;;;;;;57.20;30.90;;;;;;;4.75;84.11;94667.61;1691593;83;21136;-56
2022/09/25 02:21:30;;;;;;;85.42;41.10;;;;;;;4.58;84.20;94666.52;1692903;84;21568;-56
2022/09/25 02:24:15;;;;;;;50.65;27.13;;;;;;;4.56;84.91;94668.28;1693167;84;21474;-57
2022/09/25 02:26:43;;;;;;;41.85;24.40;;;;;;;4.59;85.04;94668.81;1693127;84;21044;-56
2022/09/25 02:29:12;;;;;;;31.75;21.15;;;;;;;4.51;84.81;94672.83;1692644;84;21434;-56
2022/09/25 02:32:05;;;;;;;34.78;20.92;;;;;;;4.44;85.19;94675.63;1688645;84;20979;-58
2022/09/25 02:34:33;;;;;;;34.10;21.97;;;;;;;4.37;85.46;94673.02;1718149;82;21409;-57
2022/09/25 02:37:01;;;;;;;41.02;23.75;;;;;;;4.33;85.94;94673.66;1719272;83;22456;-57
2022/09/25 02:39:30;;;;;;;39.45;21.95;;;;;;;4.29;86.07;94663.98;1695117;83;20986;-58
2022/09/25 02:42:33;;;;;;;36.28;20.95;;;;;;;4.25;86.46;94676.27;1692917;84;21501;-58
2022/09/25 02:45:28;;;;;;;41.23;22.48;;;;;;;4.19;86.74;94667.02;1693505;84;21628;-56
2022/09/25 02:48:27;;;;;;;56.13;28.90;;;;;;;4.13;87.12;94680.91;1721186;83;21104;-58
2022/09/25 02:51:11;;;;;;;57.20;30.92;;;;;;;4.11;87.92;94676.47;1692759;84;21280;-57
2022/09/25 02:54:19;;;;;;;48.02;28.95;;;;;;;4.21;88.63;94666.02;1692855;84;20969;-55
2022/09/25 02:57:04;;;;;;;55.75;29.57;;;;;;;4.28;88.59;94671.37;1693007;84;21044;-57
2022/09/25 02:59:39;;;;;;;43.58;25.17;;;;;;;4.30;88.92;94666.31;1693132;84;21127;-56
2022/09/25 03:02:07;;;;;;;46.70;24.60;;;;;;;4.38;88.81;94665.02;1691421;84;21546;-58
2022/09/25 03:04:35;;;;;;;33.58;22.65;;;;;;;4.45;88.69;94661.44;1721867;83;21165;-56
2022/09/25 03:07:02;;;;;;;33.40;21.15;;;;;;;4.48;88.66;94660.04;1692863;84;21498;-57
2022/09/25 03:09:34;;;;;;;34.27;22.32;;;;;;;4.56;88.77;94667.49;1692873;84;21046;-56
2022/09/25 03:12:05;;;;;;;35.80;20.85;;;;;;;4.66;88.86;94664.64;1692885;84;21104;-56
2022/09/25 03:14:34;;;;;;;39.15;22.80;;;;;;;4.70;88.35;94664.00;1693496;84;21048;-57
2022/09/25 03:17:03;;;;;;;40.08;21.57;;;;;;;4.69;88.06;94663.82;1691370;84;21932;-56
2022/09/25 03:19:33;;;;;;;27.93;18.35;;;;;;;4.75;88.36;94662.16;1722077;83;20954;-58
2022/09/25 03:22:01;;;;;;;54.08;23.22;;;;;;;4.82;88.18;94657.95;1692869;84;20993;-57
2022/09/25 03:24:30;;;;;;;32.65;19.73;;;;;;;4.81;87.87;94655.05;1693013;84;21108;-56
2022/09/25 03:26:57;;;;;;;38.05;23.05;;;;;;;4.84;87.80;94655.63;1692952;84;20997;-56
2022/09/25 03:29:25;;;;;;;32.58;19.85;;;;;;;4.84;87.87;94659.70;1692847;84;21085;-57
2022/09/25 03:31:53;;;;;;;31.75;19.05;;;;;;;4.93;88.45;94653.73;1691414;84;20958;-56
2022/09/25 03:34:21;;;;;;;31.27;19.07;;;;;;;5.02;87.68;94660.20;1722274;83;20966;-56
2022/09/25 03:36:51;;;;;;;28.40;19.05;;;;;;;5.01;87.30;94662.72;1667294;84;21025;-56
2022/09/25 03:39:18;;;;;;;33.33;20.30;;;;;;;5.02;87.40;94664.30;1693222;84;21009;-58
2022/09/25 03:41:46;;;;;;;36.93;19.73;;;;;;;5.05;87.36;94662.10;1692841;84;21284;-56
2022/09/25 03:44:14;;;;;;;28.65;19.42;;;;;;;5.10;87.34;94664.34;1690146;84;21108;-56
2022/09/25 03:46:41;;;;;;;30.17;18.30;;;;;;;5.15;87.13;94658.42;1691326;84;21017;-56
2022/09/25 03:49:12;;;;;;;28.77;18.32;;;;;;;5.22;87.19;94665.72;1721710;83;20977;-57
2022/09/25 03:51:41;;;;;;;34.98;19.62;;;;;;;5.29;86.82;94662.28;1692833;84;21071;-57
2022/09/25 03:54:08;;;;;;;25.02;18.55;;;;;;;5.29;86.45;94659.55;1692839;83;21119;-56
2022/09/25 03:56:37;;;;;;;36.93;20.12;;;;;;;5.29;86.25;94655.46;1693188;84;21505;-56
2022/09/25 03:59:04;;;;;;;25.10;17.73;;;;;;;5.31;86.37;94651.72;1690157;84;21049;-56
2022/09/25 04:01:35;;;;;;;27.50;17.45;;;;;;;5.36;86.12;94655.33;1691309;84;21445;-56
2022/09/25 04:04:02;;;;;;;28.92;18.67;;;;;;;5.39;86.17;94653.16;1721703;82;21025;-56
2022/09/25 04:06:31;;;;;;;31.00;19.85;;;;;;;5.43;85.87;94651.14;1692917;83;21803;-57
2022/09/25 04:08:59;;;;;;;30.72;20.02;;;;;;;5.46;85.99;94644.84;1718973;83;20970;-56
2022/09/25 04:11:28;;;;;;;46.98;22.70;;;;;;;5.52;85.95;94636.34;1695281;83;21071;-57
2022/09/25 04:13:56;;;;;;;34.48;21.37;;;;;;;5.56;85.69;94639.77;1692990;84;21036;-57
2022/09/25 04:16:26;;;;;;;31.73;20.05;;;;;;;5.59;85.54;94647.15;1692794;84;21065;-58
2022/09/25 04:18:54;;;;;;;32.98;19.87;;;;;;;5.57;84.81;94649.53;1721716;83;21145;-62
2022/09/25 04:21:21;;;;;;;35.73;19.12;;;;;;;5.58;84.99;94651.06;1692746;84;20981;-56
2022/09/25 04:26:36;;;;;;;26.42;17.45;;;;;;;5.69;84.09;94669.36;1692934;84;21516;-57
2022/09/25 04:29:04;;;;;;;31.05;19.27;;;;;;;5.60;83.37;94664.45;1690125;84;21119;-56
2022/09/25 04:31:32;;;;;;;23.05;16.40;;;;;;;5.40;83.18;94673.80;1674457;85;21287;-56
2022/09/25 04:34:01;;;;;;;29.98;18.17;;;;;;;5.20;83.36;94674.91;1680525;84;20963;-57
2022/09/25 04:36:29;;;;;;;21.35;15.35;;;;;;;5.03;83.65;94675.38;1696022;84;20978;-57
2022/09/25 04:38:56;;;;;;;22.65;16.62;;;;;;;4.98;84.14;94673.09;1696018;84;21529;-57
2022/09/25 04:41:25;;;;;;;26.35;18.17;;;;;;;4.91;84.22;94671.86;1695975;84;21051;-55
2022/09/25 04:43:52;;;;;;;38.35;20.68;;;;;;;4.81;84.46;94661.11;1696015;84;21250;-56
2022/09/25 04:46:19;;;;;;;29.92;18.62;;;;;;;4.74;85.15;94651.09;1696282;84;21404;-57
2022/09/25 04:48:47;;;;;;;25.35;18.75;;;;;;;4.82;86.09;94661.30;1695968;84;21022;-56
2022/09/25 04:51:15;;;;;;;26.60;17.65;;;;;;;4.93;86.09;94661.30;1696017;84;21620;-57
2022/09/25 04:53:43;;;;;;;29.45;18.42;;;;;;;5.00;86.03;94655.73;1696009;84;20982;-56
2022/09/25 04:56:13;;;;;;;21.77;16.27;;;;;;;5.04;85.99;94657.83;1663816;84;21228;-56
2022/09/25 04:58:46;;;;;;;27.00;18.00;;;;;;;5.12;86.35;94646.98;1696229;84;20970;-59
2022/09/25 05:01:14;;;;;;;25.45;18.12;;;;;;;5.17;86.36;94651.95;1696390;84;21105;-58
2022/09/25 05:03:45;;;;;;;24.18;16.15;;;;;;;5.23;86.33;94647.59;1696029;84;21566;-56
2022/09/25 05:06:12;;;;;;;27.73;17.67;;;;;;;5.27;86.27;94653.75;1696120;84;20967;-57
2022/09/25 05:08:40;;;;;;;19.92;14.87;;;;;;;5.32;86.16;94645.08;1695925;83;21242;-56
2022/09/25 05:11:08;;;;;;;21.73;15.78;;;;;;;5.40;85.78;94645.91;1696269;84;20975;-59
2022/09/25 05:13:36;;;;;;;27.62;20.10;;;;;;;5.39;85.50;94634.82;1696256;84;21518;-58
2022/09/25 05:16:05;;;;;;;31.07;19.77;;;;;;;5.40;85.71;94630.16;1696003;83;21080;-61
2022/09/25 05:18:33;;;;;;;33.98;21.48;;;;;;;5.44;85.81;94631.61;1696263;84;21467;-58
2022/09/25 05:21:03;;;;;;;37.23;22.65;;;;;;;5.55;85.79;94630.05;1695916;84;21149;-57
2022/09/25 05:23:34;;;;;;;30.43;19.00;;;;;;;5.61;85.15;94635.97;1695965;84;21507;-57
2022/09/25 05:26:01;;;;;;;26.55;17.57;;;;;;;5.60;84.62;94639.14;1696430;84;20974;-56
2022/09/25 05:28:30;;;;;;;24.43;16.37;;;;;;;5.57;84.55;94641.34;1695930;84;21071;-57
2022/09/25 05:31:04;;;;;;;23.55;16.57;;;;;;;5.52;84.53;94645.89;1695893;83;21090;-56
2022/09/25 05:33:34;;;;;;;22.50;16.97;;;;;;;5.49;84.90;94645.37;1695917;84;21276;-58
2022/09/25 05:36:06;;;;;;;22.35;16.67;;;;;;;5.43;84.76;94644.31;1696143;83;20994;-57
2022/09/25 05:38:35;;;;;;;25.52;18.42;;;;;;;5.37;84.80;94648.69;1666360;84;21077;-58
2022/09/25 05:41:04;;;;;;;25.82;15.48;;;;;;;5.32;84.87;94639.62;1695974;84;20995;-55
2022/09/25 05:43:32;;;;;;;23.77;16.80;;;;;;;5.27;84.93;94642.23;1696092;84;20992;-57
2022/09/25 05:46:01;;;;;;;24.55;17.85;;;;;;;5.28;85.35;94651.20;1695931;84;22216;-59
2022/09/25 05:48:29;;;;;;;32.73;20.80;;;;;;;5.36;85.67;94648.52;1696039;84;21011;-58
2022/09/25 05:50:58;;;;;;;60.78;33.65;;;;;;;5.39;85.81;94641.64;1696000;84;21011;-57
2022/09/25 05:53:26;;;;;;;511.65;297.85;;;;;;;5.45;85.88;94646.78;1696120;84;21021;-57
2022/09/25 05:55:59;;;;;;;67.85;39.48;;;;;;;5.55;86.13;94643.69;1696083;84;21077;-57
2022/09/25 05:58:28;;;;;;;55.58;29.25;;;;;;;5.60;86.03;94643.23;1696406;84;21168;-57
2022/09/25 06:00:57;;;;;;;39.33;22.93;;;;;;;5.65;86.22;94645.47;1695903;84;21042;-58
2022/09/25 06:03:27;;;;;;;33.67;21.97;;;;;;;5.68;86.26;94636.44;1696276;84;21073;-57
2022/09/25 06:05:57;;;;;;;29.80;20.25;;;;;;;5.71;86.29;94641.06;1700788;84;21062;-57
2022/09/25 06:08:26;;;;;;;20.82;16.02;;;;;;;5.77;86.50;94644.86;1667447;84;21525;-57
2022/09/25 06:10:53;;;;;;;20.08;15.50;;;;;;;5.84;86.48;94635.98;1696168;84;21220;-57
2022/09/25 06:13:22;;;;;;;20.10;15.15;;;;;;;5.94;86.48;94635.59;1696049;84;21074;-56
2022/09/25 06:15:51;;;;;;;18.92;14.38;;;;;;;6.03;86.14;94639.89;1641820;84;20986;-56
2022/09/25 06:18:20;;;;;;;21.23;16.65;;;;;;;6.05;85.88;94642.97;1696384;84;20994;-57
2022/09/25 06:20:48;;;;;;;20.88;13.83;;;;;;;6.07;86.04;94640.58;1666587;84;21038;-57
2022/09/25 06:23:16;;;;;;;21.73;17.15;;;;;;;6.18;86.15;94641.15;1696205;84;21530;-57
2022/09/25 06:25:44;;;;;;;42.38;15.75;;;;;;;6.29;86.13;94630.76;1696270;84;21133;-57
2022/09/25 06:28:13;;;;;;;19.12;15.35;;;;;;;6.38;85.65;94636.44;1696223;84;20986;-57
2022/09/25 06:30:41;;;;;;;16.37;14.68;;;;;;;6.42;85.81;94635.17;1695880;83;21495;-58
2022/09/25 06:33:11;;;;;;;16.73;13.78;;;;;;;6.52;85.85;94636.13;1697467;83;21518;-58
2022/09/25 06:35:46;;;;;;;20.85;13.95;;;;;;;6.65;85.86;94634.27;1711679;83;21146;-57
2022/09/25 06:38:15;;;;;;;15.83;12.98;;;;;;;6.78;85.62;94635.94;1701731;84;21108;-59
2022/09/25 06:40:44;;;;;;;18.65;13.28;;;;;;;6.90;85.11;94629.02;1711121;83;20954;-59
2022/09/25 06:43:14;;;;;;;17.30;13.28;;;;;;;7.02;85.15;94629.11;1702027;84;21077;-57
2022/09/25 06:45:42;;;;;;;27.65;18.48;;;;;;;7.20;84.83;94636.30;1711637;83;20962;-58
2022/09/25 06:48:12;;;;;;;26.75;17.35;;;;;;;7.28;84.59;94628.84;1701594;84;21164;-58
2022/09/25 06:50:43;;;;;;;21.85;15.95;;;;;;;7.43;84.75;94625.16;1711226;82;20946;-57
2022/09/25 06:53:10;;;;;;;22.42;16.75;;;;;;;7.63;84.18;94628.54;1701713;84;20990;-57
2022/09/25 06:55:39;;;;;;;23.92;18.17;;;;;;;7.80;84.04;94623.98;1711255;83;20962;-57
2022/09/25 06:58:10;;;;;;;23.83;17.02;;;;;;;8.00;83.65;94621.86;1701706;84;21554;-59
2022/09/25 07:00:39;;;;;;;25.68;17.23;;;;;;;8.18;83.33;94627.65;1711538;83;21839;-58
2022/09/25 07:05:52;;;;;;;22.17;17.90;;;;;;;8.33;81.88;94631.53;1685088;83;21493;-57
2022/09/25 07:08:20;;;;;;;25.37;16.95;;;;;;;8.36;82.00;94630.66;1708573;82;20973;-56
2022/09/25 07:10:52;;;;;;;30.75;17.40;;;;;;;8.47;81.90;94624.25;1701582;84;21026;-58
2022/09/25 07:13:27;;;;;;;17.23;14.90;;;;;;;8.66;81.70;94626.02;1711264;82;21268;-56
2022/09/25 07:16:03;;;;;;;17.98;14.95;;;;;;;8.83;80.90;94625.34;1695010;84;21020;-57
2022/09/25 07:18:32;;;;;;;20.68;15.68;;;;;;;8.93;80.42;94620.30;1659626;86;21471;-58
2022/09/25 07:21:06;;;;;;;15.08;13.28;;;;;;;9.01;80.10;94611.22;1672083;84;20981;-57
2022/09/25 07:23:36;;;;;;;18.45;14.10;;;;;;;9.12;79.77;94604.21;1695990;84;21055;-57
2022/09/25 07:26:15;;;;;;;19.25;13.08;;;;;;;9.19;79.72;94612.80;1668698;84;21845;-56
2022/09/25 07:28:43;;;;;;;20.25;13.40;;;;;;;9.20;79.73;94610.22;1698188;84;20971;-57
2022/09/25 07:31:22;;;;;;;17.85;14.47;;;;;;;9.25;79.48;94606.94;1692999;84;21131;-58
2022/09/25 07:33:49;;;;;;;19.77;14.83;;;;;;;9.31;79.46;94614.77;1685521;84;21482;-57
2022/09/25 07:36:17;;;;;;;16.20;13.13;;;;;;;9.39;79.13;94613.31;1684747;85;21084;-58
2022/09/25 07:38:50;;;;;;;21.17;15.03;;;;;;;9.47;79.22;94616.00;1684662;85;21216;-58
2022/09/25 07:41:18;;;;;;;26.57;16.45;;;;;;;9.55;78.64;94609.05;1719370;83;21470;-58
2022/09/25 07:43:45;;;;;;;15.93;11.38;;;;;;;9.56;78.25;94609.99;1718971;83;21045;-57
2022/09/25 07:46:13;;;;;;;16.75;12.20;;;;;;;9.66;78.43;94610.84;1732617;82;21033;-58
2022/09/25 07:48:41;;;;;;;14.78;11.95;;;;;;;9.73;78.52;94611.97;1712064;82;20948;-57
2022/09/25 07:51:12;;;;;;;19.87;13.95;;;;;;;9.80;78.23;94626.23;1734131;82;21893;-57
2022/09/25 07:53:42;;;;;;;23.67;16.27;;;;;;;9.85;78.13;94623.53;1734716;82;20951;-57
2022/09/25 07:56:12;;;;;;;24.87;17.80;;;;;;;9.90;77.71;94624.33;1671340;85;21028;-56
2022/09/25 07:58:40;;;;;;;41.30;20.37;;;;;;;9.87;77.65;94615.61;1667071;84;21010;-58
2022/09/25 08:01:10;;;;;;;50.10;29.72;;;;;;;9.83;77.84;94614.97;1661023;86;21586;-57
2022/09/25 08:03:38;;;;;;;34.65;21.60;;;;;;;9.87;77.93;94618.35;1667895;84;21754;-57
2022/09/25 08:06:12;;;;;;;28.60;19.17;;;;;;;9.94;78.04;94608.48;1667183;86;21022;-57
2022/09/25 08:08:41;;;;;;;25.57;15.10;;;;;;;10.08;78.28;94606.05;1667226;86;21439;-57
2022/09/25 08:11:12;;;;;;;22.37;15.93;;;;;;;10.24;77.92;94609.20;1667675;86;21041;-58
2022/09/25 08:13:40;;;;;;;34.85;18.70;;;;;;;10.38;77.30;94599.06;1668166;86;20999;-59
2022/09/25 08:16:17;;;;;;;23.65;15.48;;;;;;;10.49;76.63;94593.33;1638071;86;21256;-57
2022/09/25 08:18:46;;;;;;;21.68;14.80;;;;;;;10.58;76.20;94594.77;1667619;85;21034;-58
2022/09/25 08:21:16;;;;;;;24.40;16.02;;;;;;;10.67;75.59;94603.66;1691911;83;21040;-59
2022/09/25 08:23:46;;;;;;;32.58;18.45;;;;;;;10.80;75.80;94594.86;1663190;84;21451;-59
2022/09/25 08:26:13;;;;;;;37.50;15.83;;;;;;;10.99;75.61;94588.21;1691999;84;20977;-57
2022/09/25 08:28:41;;;;;;;18.48;12.10;;;;;;;11.12;75.03;94583.38;1691726;83;21232;-57
2022/09/25 08:31:12;;;;;;;17.65;13.45;;;;;;;11.22;74.66;94578.66;1691623;83;20998;-57
2022/09/25 08:33:48;;;;;;;24.37;14.38;;;;;;;11.30;74.01;94579.30;1691847;83;21041;-58
2022/09/25 08:36:15;;;;;;;21.57;13.58;;;;;;;11.43;73.80;94577.78;1691555;84;21053;-57
2022/09/25 08:38:44;;;;;;;20.12;12.95;;;;;;;11.54;73.52;94574.73;1692181;84;20969;-58
2022/09/25 08:41:25;;;;;;;18.10;12.40;;;;;;;11.72;72.95;94571.28;1691513;84;21335;-56
2022/09/25 08:44:32;;;;;;;20.57;13.65;;;;;;;11.98;72.51;94578.02;1691684;84;21062;-58
2022/09/25 08:50:14;;;;;;;14.18;9.98;;;;;;;12.59;71.55;94574.27;1691669;84;20965;-58
2022/09/25 08:52:47;;;;;;;26.48;11.45;;;;;;;12.82;70.12;94570.22;1680099;84;21450;-58
2022/09/25 08:56:13;;;;;;;;;;;;;;;13.01;69.30;94561.27;1668960;86;21106;-57
2022/09/25 08:57:54;;;;;;;11.97;9.20;;;;;;;13.24;68.74;94550.27;1652200;86;20197;-58
2022/09/25 09:00:23;;;;;;;14.58;10.48;;;;;;;13.49;69.15;94547.67;1680527;84;21041;-57
2022/09/25 09:02:55;;;;;;;11.05;8.68;;;;;;;13.71;68.52;94543.98;1695909;84;21002;-57
2022/09/25 09:05:29;;;;;;;17.45;10.23;;;;;;;13.94;67.39;94532.12;1695867;84;21141;-57
2022/09/25 09:08:02;;;;;;;17.87;13.18;;;;;;;14.16;66.12;94536.75;1695803;84;21194;-58
2022/09/25 09:10:50;;;;;;;17.05;11.73;;;;;;;14.34;66.26;94533.81;1696007;84;21069;-58
2022/09/25 09:13:38;;;;;;;13.28;10.80;;;;;;;14.42;65.47;94531.58;1696099;84;21490;-57
2022/09/25 09:16:33;;;;;;;29.37;13.75;;;;;;;14.49;65.16;94527.78;1687043;84;21557;-57
2022/09/25 09:19:04;;;;;;;12.15;10.08;;;;;;;14.59;64.50;94527.84;1695654;84;20978;-58
2022/09/25 09:21:37;;;;;;;12.58;10.30;;;;;;;14.73;63.33;94520.76;1695759;83;21911;-58
2022/09/25 09:24:34;;;;;;;20.82;12.37;;;;;;;14.78;62.86;94513.93;1695424;84;21018;-57
2022/09/25 09:27:24;;;;;;;15.93;9.63;;;;;;;14.84;62.33;94505.08;1695882;84;21184;-57
2022/09/25 09:30:24;;;;;;;18.23;10.60;;;;;;;14.99;61.78;94506.45;1695815;84;20982;-58
2022/09/25 09:33:29;;;;;;;9.85;8.20;;;;;;;15.08;61.05;94495.24;1612932;84;20970;-58
2022/09/25 09:36:12;;;;;;;13.62;7.80;;;;;;;15.17;60.28;94491.73;1695745;84;21257;-59
2022/09/25 09:38:58;;;;;;;;;;;;;;;15.24;59.86;94484.41;1697961;84;21120;-58
2022/09/25 09:41:32;;;;;;;6.75;6.10;;;;;;;15.45;60.03;94476.28;1689840;84;20167;-58
2022/09/25 09:44:38;;;;;;;17.23;7.92;;;;;;;15.89;58.61;94471.25;1696116;84;20998;-58
2022/09/25 09:47:32;;;;;;;9.55;7.05;;;;;;;16.37;57.26;94457.77;1695547;84;21563;-58
2022/09/25 09:50:35;;;;;;;7.03;5.53;;;;;;;16.66;55.68;94455.37;1695847;83;21169;-56
2022/09/25 09:53:06;;;;;;;7.30;4.72;;;;;;;17.05;54.42;94455.80;1695080;84;21081;-59
2022/09/25 09:55:51;;;;;;;4.45;4.03;;;;;;;17.71;52.44;94455.41;1665810;84;21010;-57
2022/09/25 09:58:33;;;;;;;13.03;5.08;;;;;;;18.16;50.76;94453.66;1666288;84;22251;-59
2022/09/25 10:01:01;;;;;;;7.73;4.90;;;;;;;18.58;50.21;94456.28;1680354;83;21076;-60
2022/09/25 10:03:31;;;;;;;6.00;4.45;;;;;;;19.02;49.17;94457.04;1666073;84;21232;-57
2022/09/25 10:06:04;;;;;;;9.48;6.60;;;;;;;19.47;48.39;94453.57;1695122;84;21046;-59
2022/09/25 10:08:32;;;;;;;11.50;7.40;;;;;;;19.89;46.29;94446.95;1695852;83;21127;-58
2022/09/25 10:11:04;;;;;;;7.80;4.95;;;;;;;20.24;45.71;94441.47;1656572;85;21508;-58
2022/09/25 10:13:36;;;;;;;10.60;5.12;;;;;;;20.60;45.50;94433.23;1647965;85;21028;-59
2022/09/25 10:16:11;;;;;;;8.63;5.37;;;;;;;21.05;43.72;94428.81;1675292;84;21108;-58
2022/09/25 10:19:03;;;;;;;9.45;4.42;;;;;;;21.48;43.01;94424.08;1730901;82;20959;-57
2022/09/25 10:21:41;;;;;;;6.95;4.00;;;;;;;21.91;41.67;94415.83;1689727;84;21023;-58
2022/09/25 10:24:10;;;;;;;7.15;3.52;;;;;;;22.24;40.55;94414.73;1727708;82;20995;-57
2022/09/25 10:26:39;;;;;;;4.65;3.77;;;;;;;22.49;40.25;94421.80;1701733;83;21057;-58
2022/09/25 10:29:26;;;;;;;8.30;3.50;;;;;;;22.72;39.85;94418.78;1730315;83;21162;-56
2022/09/25 10:32:02;;;;;;;5.40;3.70;;;;;;;23.10;39.84;94411.77;1701518;84;21037;-62
2022/09/25 10:34:31;;;;;;;4.80;4.05;;;;;;;23.83;39.86;94412.77;1681743;84;21026;-58
2022/09/25 10:36:59;;;;;;;9.18;4.08;;;;;;;24.42;38.31;94412.01;1772143;81;20979;-57
2022/09/25 10:39:38;;;;;;;4.97;3.70;;;;;;;24.88;36.97;94412.61;1741876;81;21562;-58
2022/09/25 10:42:38;;;;;;;6.10;3.40;;;;;;;25.19;36.42;94401.77;1751626;80;21225;-57
2022/09/25 10:45:35;;;;;;;14.78;4.05;;;;;;;25.29;35.72;94402.12;1769225;80;20979;-59
2022/09/25 10:51:09;;;;;;;8.13;4.75;;;;;;;25.03;35.44;94400.09;1680155;84;21070;-60
2022/09/25 10:53:38;;;;;;;5.40;4.25;;;;;;;25.05;36.32;94408.73;1689959;83;21012;-58
2022/09/25 10:56:11;;;;;;;10.03;4.05;;;;;;;25.19;36.06;94403.17;1700170;83;21253;-57
2022/09/25 10:58:57;;;;;;;6.37;4.00;;;;;;;25.12;34.98;94403.17;1687658;83;21085;-58
2022/09/25 11:01:39;;;;;;;6.15;3.90;;;;;;;24.94;35.83;94404.14;1697034;83;21072;-58
2022/09/25 11:04:17;;;;;;;5.10;3.70;;;;;;;24.79;36.33;94403.25;1730927;83;21514;-58
2022/09/25 11:06:51;;;;;;;5.58;3.70;;;;;;;24.60;34.77;94409.04;1701525;84;21034;-57
2022/09/25 11:09:21;;;;;;;10.25;4.12;;;;;;;24.22;35.67;94415.52;1701728;84;21149;-57
2022/09/25 11:11:53;;;;;;;6.30;4.17;;;;;;;23.93;35.98;94418.03;1682580;84;21494;-58
2022/09/25 11:14:31;;;;;;;11.78;4.70;;;;;;;23.56;36.67;94409.80;1699497;84;21010;-57
2022/09/25 11:17:04;;;;;;;5.28;3.70;;;;;;;23.30;37.41;94408.38;1775428;80;20959;-58
2022/09/25 11:19:33;;;;;;;8.60;3.72;;;;;;;23.28;37.58;94401.15;1695731;83;21171;-58
2022/09/25 11:22:12;;;;;;;4.67;3.60;;;;;;;23.55;37.58;94401.27;1653075;85;21788;-57
2022/09/25 11:25:10;;;;;;;6.78;3.77;;;;;;;23.76;36.94;94397.91;1696058;83;21015;-55
2022/09/25 11:28:01;;;;;;;5.47;4.60;;;;;;;23.82;36.88;94398.61;1695773;84;21006;-57
2022/09/25 11:30:33;;;;;;;6.30;4.57;;;;;;;23.31;37.20;94398.66;1621950;84;20974;-56
2022/09/25 11:33:15;;;;;;;12.35;7.80;;;;;;;22.51;37.63;94401.64;1724499;83;20970;-58
2022/09/25 11:36:24;;;;;;;14.95;6.08;;;;;;;21.69;39.16;94406.28;1680388;84;21275;-58
2022/09/25 11:42:13;;;;;;;18.12;16.00;;;;;;;19.95;42.02;94412.03;1702209;84;21426;-57
2022/09/25 11:44:57;;;;;;;10.40;6.00;;;;;;;19.41;43.66;94420.09;1612611;84;21002;-57
2022/09/25 11:48:01;;;;;;;10.50;6.58;;;;;;;18.99;44.58;94414.84;1711753;83;21088;-56
2022/09/25 11:50:37;;;;;;;12.25;8.53;;;;;;;18.56;45.47;94407.27;1634802;86;21188;-58
2022/09/25 11:53:59;;;;;;;14.50;10.25;;;;;;;18.11;46.77;94404.92;1665413;86;21122;-59
2022/09/25 11:56:44;;;;;;;10.08;7.45;;;;;;;17.85;47.43;94410.67;1712375;82;21501;-58
2022/09/25 11:59:27;;;;;;;14.05;7.37;;;;;;;17.59;47.94;94411.48;1731461;82;21002;-58
2022/09/25 12:02:04;;;;;;;10.30;8.50;;;;;;;17.38;48.39;94412.14;1711888;82;21032;-58
2022/09/25 12:04:38;;;;;;;28.55;23.67;;;;;;;17.19;48.88;94409.62;1661805;83;21209;-57
2022/09/25 12:07:47;;;;;;;15.45;13.53;;;;;;;17.05;49.51;94407.77;1711969;82;20990;-57
2022/09/25 12:10:24;;;;;;;12.82;9.03;;;;;;;16.96;49.94;94416.31;1711730;83;21060;-59
2022/09/25 12:13:21;;;;;;;15.30;9.93;;;;;;;16.87;50.31;94411.71;1711144;83;21421;-58
2022/09/25 12:16:22;;;;;;;12.63;9.03;;;;;;;16.80;50.73;94408.02;1701219;82;21029;-56
2022/09/25 12:19:09;;;;;;;13.55;9.95;;;;;;;16.79;51.10;94408.50;1725813;82;21877;-57
2022/09/25 12:21:43;;;;;;;12.82;9.43;;;;;;;16.78;51.11;94403.59;1734337;82;21006;-58